Darstellungsparameter: Aktuell verwendete Einstellungen:
Skalierung der Graphiken ... ?
xyx+y,   Skalierungsfaktor:      Skalierung: Modus: x, Faktor: 1
Darstellungszeitraum ... ?
Vom - - bis: - -   Zeitraum: 23.02.2021 - 23.02.2021
Min/Max/Avg-Anzeige ... ?
Zeige MMA aktuell
Zeige MMA Monat
Zeige MMA alles
Zeige --A aktuell
Zeige --A Monat
Zeige --A alles
Keine MMA-Anzeige
MMA:
Keine MMA-Graphiken
MMA-Basis: 23.02.2021 - 23.02.2021
Quicknavigation für Darstellung... ?
Tage:      1T, 2T, 3T, 5T -1T -2T -3T -5T +1T +2T +3T +5T
Wochen: 1W, 2W, 3W -1W -2W -3W +1W +2W +3W
Monate: 1M, 3M, 6M -1M -3M -6M +1M +3M +6M
Jahre:    1J, 3J, 5J, 10J -1J -3J -5J -10J +1J +3J +5J +10J
Nutze für die Darstellung ... ?
Originaldaten oder Mittelwerte auf ...
Stundenbasis Tagesbasis Wochenbasis
Monatsbasis Jahresbasis      Datenbasis: Original-Daten
Darstellen als:
Statistik (Auto) Statistik J:M      Darstellung:
Zur Graphik,    zurück zur Übersicht aller Sensoren.
 
Tabellarische Datenbersicht: ?
 
Sensor: Nr:Datum:Temp:Feuchte:Taupunkt:
Aussen-T/F 1 23-02-2021 00:00:00 7.5 C 90 % 5.97 C
2 23-02-2021 00:05:00 7.5 C 90 % 5.97 C
3 23-02-2021 00:10:00 7.4 C 90 % 5.87 C
4 23-02-2021 00:15:00 7.3 C 90 % 5.77 C
5 23-02-2021 00:20:00 7.3 C 90 % 5.77 C
6 23-02-2021 00:25:00 7.3 C 91 % 5.93 C
7 23-02-2021 00:30:00 7.4 C 91 % 6.03 C
8 23-02-2021 00:35:00 7.4 C 91 % 6.03 C
9 23-02-2021 00:40:00 7.4 C 91 % 6.03 C
10 23-02-2021 00:45:00 7.4 C 91 % 6.03 C
11 23-02-2021 00:50:00 7.3 C 91 % 5.93 C
12 23-02-2021 00:55:00 7.3 C 91 % 5.93 C
13 23-02-2021 01:00:00 7.3 C 91 % 5.93 C
14 23-02-2021 01:05:00 7.3 C 91 % 5.93 C
15 23-02-2021 01:10:00 7.2 C 91 % 5.83 C
16 23-02-2021 01:15:00 7.2 C 91 % 5.83 C
17 23-02-2021 01:20:00 7.2 C 91 % 5.83 C
18 23-02-2021 01:25:00 7.1 C 91 % 5.73 C
19 23-02-2021 01:30:00 7.1 C 92 % 5.89 C
20 23-02-2021 01:35:00 7.2 C 92 % 5.99 C
21 23-02-2021 01:40:00 7.2 C 92 % 5.99 C
22 23-02-2021 01:45:00 7.2 C 92 % 5.99 C
23 23-02-2021 01:50:00 7.2 C 92 % 5.99 C
24 23-02-2021 01:55:00 7.2 C 92 % 5.99 C
25 23-02-2021 02:00:00 7.2 C 92 % 5.99 C
Sensor: Nr:Datum:Temp:Feuchte:Taupunkt:
Aussen-T/F 26 23-02-2021 02:05:00 7.2 C 92 % 5.99 C
27 23-02-2021 02:10:00 7.2 C 92 % 5.99 C
28 23-02-2021 02:15:00 7.2 C 92 % 5.99 C
29 23-02-2021 02:20:00 7.3 C 92 % 6.09 C
30 23-02-2021 02:25:00 7.3 C 92 % 6.09 C
31 23-02-2021 02:30:00 7.3 C 92 % 6.09 C
32 23-02-2021 02:35:00 7.3 C 92 % 6.09 C
33 23-02-2021 02:40:00 7.3 C 92 % 6.09 C
34 23-02-2021 02:45:00 7.3 C 92 % 6.09 C
35 23-02-2021 02:50:00 7.3 C 92 % 6.09 C
36 23-02-2021 02:55:00 7.3 C 92 % 6.09 C
37 23-02-2021 03:00:00 7.3 C 92 % 6.09 C
38 23-02-2021 03:05:00 7.3 C 93 % 6.25 C
39 23-02-2021 03:10:00 7.4 C 92 % 6.19 C
40 23-02-2021 03:15:00 7.4 C 92 % 6.19 C
41 23-02-2021 03:20:00 7.4 C 93 % 6.34 C
42 23-02-2021 03:25:00 7.4 C 92 % 6.19 C
43 23-02-2021 03:30:00 7.4 C 92 % 6.19 C
44 23-02-2021 03:35:00 7.4 C 92 % 6.19 C
45 23-02-2021 03:40:00 7.4 C 92 % 6.19 C
46 23-02-2021 03:45:00 7.4 C 92 % 6.19 C
47 23-02-2021 03:50:00 7.4 C 92 % 6.19 C
48 23-02-2021 03:55:00 7.4 C 92 % 6.19 C
49 23-02-2021 04:00:00 7.4 C 93 % 6.34 C
50 23-02-2021 04:05:00 7.4 C 93 % 6.34 C
Sensor: Nr:Datum:Temp:Feuchte:Taupunkt:
Aussen-T/F 51 23-02-2021 04:10:00 7.4 C 92 % 6.19 C
52 23-02-2021 04:15:00 7.4 C 92 % 6.19 C
53 23-02-2021 04:20:00 7.4 C 92 % 6.19 C
54 23-02-2021 04:25:00 7.4 C 93 % 6.34 C
55 23-02-2021 04:30:00 7.3 C 92 % 6.09 C
56 23-02-2021 04:35:00 7.3 C 92 % 6.09 C
57 23-02-2021 04:40:00 7.3 C 93 % 6.25 C
58 23-02-2021 04:45:00 7.3 C 93 % 6.25 C
59 23-02-2021 04:50:00 7.4 C 93 % 6.34 C
60 23-02-2021 04:55:00 7.4 C 93 % 6.34 C
61 23-02-2021 05:00:00 7.3 C 92 % 6.09 C
62 23-02-2021 05:05:00 7.3 C 92 % 6.09 C
63 23-02-2021 05:10:00 7.3 C 92 % 6.09 C
64 23-02-2021 05:15:00 7.2 C 93 % 6.15 C
65 23-02-2021 05:20:00 7.2 C 93 % 6.15 C
66 23-02-2021 05:25:00 7.3 C 93 % 6.25 C
67 23-02-2021 05:30:00 7.2 C 93 % 6.15 C
68 23-02-2021 05:35:00 7.2 C 93 % 6.15 C
69 23-02-2021 05:40:00 7.2 C 92 % 5.99 C
70 23-02-2021 05:45:00 7.1 C 92 % 5.89 C
71 23-02-2021 05:50:00 6.9 C 92 % 5.69 C
72 23-02-2021 05:55:00 6.8 C 92 % 5.59 C
73 23-02-2021 06:00:00 6.7 C 92 % 5.49 C
74 23-02-2021 06:05:00 6.7 C 92 % 5.49 C
75 23-02-2021 06:10:00 6.6 C 92 % 5.4 C
Sensor: Nr:Datum:Temp:Feuchte:Taupunkt:
Aussen-T/F 76 23-02-2021 06:15:00 6.4 C 92 % 5.2 C
77 23-02-2021 06:20:00 6.3 C 92 % 5.1 C
78 23-02-2021 06:25:00 6.3 C 93 % 5.25 C
79 23-02-2021 06:30:00 6.2 C 93 % 5.15 C
80 23-02-2021 06:35:00 6.1 C 93 % 5.06 C
81 23-02-2021 06:40:00 6.1 C 93 % 5.06 C
82 23-02-2021 06:45:00 6.2 C 94 % 5.31 C
83 23-02-2021 06:50:00 6.2 C 94 % 5.31 C
84 23-02-2021 06:55:00 6.2 C 94 % 5.31 C
85 23-02-2021 07:00:00 6.1 C 94 % 5.21 C
86 23-02-2021 07:05:00 6.1 C 94 % 5.21 C
87 23-02-2021 07:10:00 6.3 C 95 % 5.56 C
88 23-02-2021 07:15:00 6.4 C 95 % 5.66 C
89 23-02-2021 07:20:00 6.7 C 95 % 5.96 C
90 23-02-2021 07:25:00 6.8 C 95 % 6.06 C
91 23-02-2021 07:30:00 7.1 C 95 % 6.35 C
92 23-02-2021 07:35:00 7.2 C 95 % 6.45 C
93 23-02-2021 07:40:00 7.2 C 95 % 6.45 C
94 23-02-2021 07:45:00 7.2 C 95 % 6.45 C
95 23-02-2021 07:50:00 7.4 C 95 % 6.65 C
96 23-02-2021 07:55:00 7.5 C 95 % 6.75 C
97 23-02-2021 08:00:00 7.7 C 95 % 6.95 C
98 23-02-2021 08:05:00 7.7 C 95 % 6.95 C
99 23-02-2021 08:10:00 7.6 C 94 % 6.7 C
100 23-02-2021 08:15:00 7.7 C 95 % 6.95 C
Sensor: Nr:Datum:Temp:Feuchte:Taupunkt:
Aussen-T/F 101 23-02-2021 08:20:00 7.9 C 95 % 7.15 C
102 23-02-2021 08:25:00 8.1 C 95 % 7.35 C
103 23-02-2021 08:30:00 8.2 C 95 % 7.45 C
104 23-02-2021 08:35:00 8.1 C 94 % 7.19 C
105 23-02-2021 08:40:00 8.1 C 94 % 7.19 C
106 23-02-2021 08:45:00 8.2 C 93 % 7.14 C
107 23-02-2021 08:50:00 8.2 C 93 % 7.14 C
108 23-02-2021 08:55:00 8.2 C 93 % 7.14 C
109 23-02-2021 09:00:00 8.2 C 93 % 7.14 C
110 23-02-2021 09:05:00 8.2 C 93 % 7.14 C
111 23-02-2021 09:10:00 8.3 C 93 % 7.24 C
112 23-02-2021 09:15:00 8.5 C 94 % 7.59 C
113 23-02-2021 09:20:00 8.7 C 94 % 7.79 C
114 23-02-2021 09:25:00 8.9 C 94 % 7.99 C
115 23-02-2021 09:30:00 9.2 C 93 % 8.13 C
116 23-02-2021 09:35:00 9.2 C 92 % 7.97 C
117 23-02-2021 09:40:00 9.3 C 92 % 8.07 C
118 23-02-2021 09:45:00 9.4 C 92 % 8.17 C
119 23-02-2021 09:50:00 9.5 C 91 % 8.11 C
120 23-02-2021 09:55:00 9.6 C 91 % 8.21 C
121 23-02-2021 10:00:00 9.6 C 91 % 8.21 C
122 23-02-2021 10:05:00 9.7 C 91 % 8.3 C
123 23-02-2021 10:10:00 9.8 C 91 % 8.4 C
124 23-02-2021 10:15:00 9.8 C 91 % 8.4 C
125 23-02-2021 10:20:00 10 C 91 % 8.6 C
Sensor: Nr:Datum:Temp:Feuchte:Taupunkt:
Aussen-T/F 126 23-02-2021 10:25:00 10.1 C 90 % 8.54 C
127 23-02-2021 10:30:00 10.3 C 91 % 8.9 C
128 23-02-2021 10:35:00 10.6 C 90 % 9.03 C
129 23-02-2021 10:40:00 10.9 C 90 % 9.33 C
130 23-02-2021 10:45:00 11.2 C 89 % 9.46 C
131 23-02-2021 10:50:00 11.4 C 88 % 9.49 C
132 23-02-2021 10:55:00 11.8 C 87 % 9.71 C
133 23-02-2021 11:00:00 12.1 C 86 % 9.83 C
134 23-02-2021 11:05:00 12.3 C 85 % 9.85 C
135 23-02-2021 11:10:00 12.6 C 85 % 10.15 C
136 23-02-2021 11:15:00 12.9 C 83 % 10.09 C
137 23-02-2021 11:20:00 13.2 C 82 % 10.2 C
138 23-02-2021 11:25:00 13.4 C 81 % 10.21 C
139 23-02-2021 11:30:00 13.7 C 81 % 10.5 C
140 23-02-2021 11:35:00 13.9 C 81 % 10.7 C
141 23-02-2021 11:40:00 14.2 C 80 % 10.8 C
142 23-02-2021 11:45:00 14.4 C 80 % 11 C
143 23-02-2021 11:50:00 14.6 C 79 % 11 C
144 23-02-2021 11:55:00 14.8 C 79 % 11.2 C
145 23-02-2021 12:00:00 14.9 C 79 % 11.29 C
146 23-02-2021 12:05:00 15.1 C 78 % 11.3 C
147 23-02-2021 12:10:00 15.3 C 78 % 11.49 C
148 23-02-2021 12:15:00 15.5 C 78 % 11.68 C
149 23-02-2021 12:20:00 15.7 C 77 % 11.68 C
150 23-02-2021 12:25:00 15.9 C 75 % 11.48 C
Sensor: Nr:Datum:Temp:Feuchte:Taupunkt:
Aussen-T/F 151 23-02-2021 12:30:00 16.2 C 73 % 11.36 C
152 23-02-2021 12:35:00 16.6 C 70 % 11.11 C
153 23-02-2021 12:40:00 16.9 C 69 % 11.18 C
154 23-02-2021 12:45:00 17.3 C 68 % 11.34 C
155 23-02-2021 12:50:00 17.6 C 65 % 10.95 C
156 23-02-2021 12:55:00 17.8 C 65 % 11.14 C
157 23-02-2021 13:00:00 17.8 C 64 % 10.9 C
158 23-02-2021 13:05:00 18 C 63 % 10.86 C
159 23-02-2021 13:10:00 18.1 C 64 % 11.19 C
160 23-02-2021 13:15:00 18.2 C 62 % 10.81 C
161 23-02-2021 13:20:00 18.4 C 63 % 11.23 C
162 23-02-2021 13:25:00 18.5 C 62 % 11.09 C
163 23-02-2021 13:30:00 18.6 C 61 % 10.94 C
164 23-02-2021 13:35:00 18.7 C 62 % 11.28 C
165 23-02-2021 13:40:00 18.9 C 59 % 10.72 C
166 23-02-2021 13:45:00 18.9 C 60 % 10.97 C
167 23-02-2021 13:50:00 19 C 59 % 10.81 C
168 23-02-2021 13:55:00 19.1 C 58 % 10.65 C
169 23-02-2021 14:00:00 19.2 C 59 % 11 C
170 23-02-2021 14:05:00 19.3 C 58 % 10.84 C
171 23-02-2021 14:10:00 19.4 C 57 % 10.67 C
172 23-02-2021 14:15:00 19.5 C 58 % 11.02 C
173 23-02-2021 14:20:00 19.6 C 57 % 10.86 C
174 23-02-2021 14:25:00 19.7 C 58 % 11.21 C
175 23-02-2021 14:30:00 19.7 C 59 % 11.47 C
Sensor: Nr:Datum:Temp:Feuchte:Taupunkt:
Aussen-T/F 176 23-02-2021 14:35:00 19.8 C 59 % 11.56 C
177 23-02-2021 14:40:00 19.9 C 57 % 11.14 C
178 23-02-2021 14:45:00 20.2 C 55 % 10.88 C
179 23-02-2021 14:50:00 20.2 C 56 % 11.15 C
180 23-02-2021 14:55:00 20.2 C 56 % 11.15 C
181 23-02-2021 15:00:00 20 C 57 % 11.23 C
182 23-02-2021 15:05:00 19.8 C 56 % 10.78 C
183 23-02-2021 15:10:00 19.8 C 56 % 10.78 C
184 23-02-2021 15:15:00 19.8 C 57 % 11.04 C
185 23-02-2021 15:20:00 19.7 C 58 % 11.21 C
186 23-02-2021 15:25:00 19.6 C 57 % 10.86 C
187 23-02-2021 15:30:00 19.6 C 57 % 10.86 C
188 23-02-2021 15:35:00 19.6 C 58 % 11.12 C
189 23-02-2021 15:40:00 19.6 C 58 % 11.12 C
190 23-02-2021 15:45:00 19.6 C 57 % 10.86 C
191 23-02-2021 15:50:00 19.7 C 58 % 11.21 C
192 23-02-2021 15:55:00 19.7 C 57 % 10.95 C
193 23-02-2021 16:00:00 19.8 C 58 % 11.3 C
194 23-02-2021 16:05:00 19.9 C 56 % 10.87 C
195 23-02-2021 16:10:00 19.9 C 58 % 11.4 C
196 23-02-2021 16:15:00 19.8 C 57 % 11.04 C
197 23-02-2021 16:20:00 19.8 C 56 % 10.78 C
198 23-02-2021 16:25:00 19.8 C 57 % 11.04 C
199 23-02-2021 16:30:00 19.7 C 56 % 10.68 C
200 23-02-2021 16:35:00 19.6 C 56 % 10.59 C
Sensor: Nr:Datum:Temp:Feuchte:Taupunkt:
Aussen-T/F 201 23-02-2021 16:40:00 19.6 C 57 % 10.86 C
202 23-02-2021 16:45:00 19.4 C 56 % 10.4 C
203 23-02-2021 16:50:00 19.4 C 56 % 10.4 C
204 23-02-2021 16:55:00 19.3 C 55 % 10.04 C
205 23-02-2021 17:00:00 19.3 C 54 % 9.77 C
206 23-02-2021 17:05:00 19.3 C 56 % 10.31 C
207 23-02-2021 17:10:00 19.3 C 55 % 10.04 C
208 23-02-2021 17:15:00 19.3 C 56 % 10.31 C
209 23-02-2021 17:20:00 19.2 C 59 % 11 C
210 23-02-2021 17:25:00 18.8 C 60 % 10.88 C
211 23-02-2021 17:30:00 18.4 C 61 % 10.75 C
212 23-02-2021 17:35:00 17.9 C 63 % 10.76 C
213 23-02-2021 17:40:00 17.4 C 64 % 10.53 C
214 23-02-2021 17:45:00 17 C 66 % 10.61 C
215 23-02-2021 17:50:00 16.6 C 67 % 10.45 C
216 23-02-2021 17:55:00 16.1 C 69 % 10.42 C
217 23-02-2021 18:00:00 15.8 C 69 % 10.13 C
218 23-02-2021 18:05:00 15.5 C 70 % 10.06 C
219 23-02-2021 18:10:00 15.2 C 71 % 9.98 C
220 23-02-2021 18:15:00 15 C 72 % 10 C
221 23-02-2021 18:20:00 14.8 C 73 % 10.01 C
222 23-02-2021 18:25:00 14.6 C 74 % 10.02 C
223 23-02-2021 18:30:00 14.4 C 75 % 10.03 C
224 23-02-2021 18:35:00 14.2 C 75 % 9.84 C
225 23-02-2021 18:40:00 14.1 C 76 % 9.94 C
Sensor: Nr:Datum:Temp:Feuchte:Taupunkt:
Aussen-T/F 226 23-02-2021 18:45:00 13.9 C 77 % 9.94 C
227 23-02-2021 18:50:00 13.8 C 77 % 9.84 C
228 23-02-2021 18:55:00 13.7 C 78 % 9.94 C
229 23-02-2021 19:00:00 13.6 C 78 % 9.84 C
230 23-02-2021 19:05:00 13.4 C 78 % 9.65 C
231 23-02-2021 19:10:00 13.3 C 79 % 9.74 C
232 23-02-2021 19:15:00 13.2 C 79 % 9.64 C
233 23-02-2021 19:20:00 13 C 80 % 9.63 C
234 23-02-2021 19:25:00 12.9 C 80 % 9.54 C
235 23-02-2021 19:30:00 12.8 C 81 % 9.62 C
236 23-02-2021 19:35:00 12.6 C 81 % 9.43 C
237 23-02-2021 19:40:00 12.5 C 82 % 9.51 C
238 23-02-2021 19:45:00 12.4 C 82 % 9.42 C
239 23-02-2021 19:50:00 12.3 C 82 % 9.32 C
240 23-02-2021 19:55:00 12.2 C 82 % 9.22 C
241 23-02-2021 20:00:00 12.1 C 83 % 9.3 C
242 23-02-2021 20:05:00 11.9 C 83 % 9.11 C
243 23-02-2021 20:10:00 11.8 C 84 % 9.19 C
244 23-02-2021 20:15:00 11.7 C 84 % 9.09 C
245 23-02-2021 20:20:00 11.6 C 84 % 8.99 C
246 23-02-2021 20:25:00 11.4 C 84 % 8.8 C
247 23-02-2021 20:30:00 11.2 C 84 % 8.6 C
248 23-02-2021 20:35:00 11.1 C 85 % 8.68 C
249 23-02-2021 20:40:00 11.1 C 86 % 8.85 C
250 23-02-2021 20:45:00 10.9 C 86 % 8.65 C
Sensor: Nr:Datum:Temp:Feuchte:Taupunkt:
Aussen-T/F 251 23-02-2021 20:50:00 10.8 C 85 % 8.38 C
252 23-02-2021 20:55:00 10.6 C 86 % 8.36 C
253 23-02-2021 21:00:00 10.4 C 87 % 8.33 C
254 23-02-2021 21:05:00 10.3 C 88 % 8.4 C
255 23-02-2021 21:10:00 10.3 C 88 % 8.4 C
256 23-02-2021 21:15:00 10.3 C 89 % 8.57 C
257 23-02-2021 21:20:00 10.3 C 88 % 8.4 C
258 23-02-2021 21:25:00 10.2 C 87 % 8.14 C
259 23-02-2021 21:30:00 10.1 C 88 % 8.21 C
260 23-02-2021 21:35:00 10 C 88 % 8.11 C
261 23-02-2021 21:40:00 9.9 C 88 % 8.01 C
262 23-02-2021 21:45:00 9.9 C 88 % 8.01 C
263 23-02-2021 21:50:00 9.8 C 89 % 8.08 C
264 23-02-2021 21:55:00 9.8 C 88 % 7.91 C
265 23-02-2021 22:00:00 9.7 C 88 % 7.81 C
266 23-02-2021 22:05:00 9.6 C 89 % 7.88 C
267 23-02-2021 22:10:00 9.6 C 89 % 7.88 C
268 23-02-2021 22:15:00 9.4 C 89 % 7.68 C
269 23-02-2021 22:20:00 9.4 C 90 % 7.85 C
270 23-02-2021 22:25:00 9.3 C 90 % 7.75 C
271 23-02-2021 22:30:00 9.3 C 90 % 7.75 C
272 23-02-2021 22:35:00 9.2 C 90 % 7.65 C
273 23-02-2021 22:40:00 9 C 90 % 7.45 C
274 23-02-2021 22:45:00 8.9 C 90 % 7.35 C
275 23-02-2021 22:50:00 8.8 C 90 % 7.25 C
Sensor: Nr:Datum:Temp:Feuchte:Taupunkt:
Aussen-T/F 276 23-02-2021 22:55:00 8.8 C 90 % 7.25 C
277 23-02-2021 23:00:00 8.6 C 90 % 7.06 C
278 23-02-2021 23:05:00 8.5 C 91 % 7.12 C
279 23-02-2021 23:10:00 8.5 C 91 % 7.12 C
280 23-02-2021 23:15:00 8.4 C 91 % 7.02 C
281 23-02-2021 23:20:00 8.4 C 91 % 7.02 C
282 23-02-2021 23:25:00 8.3 C 91 % 6.92 C
283 23-02-2021 23:30:00 8.2 C 91 % 6.82 C
284 23-02-2021 23:35:00 8.2 C 92 % 6.98 C
285 23-02-2021 23:40:00 8.1 C 92 % 6.88 C
286 23-02-2021 23:45:00 8.1 C 92 % 6.88 C
287 23-02-2021 23:50:00 8.1 C 92 % 6.88 C
288 23-02-2021 23:55:00 8.1 C 93 % 7.04 C

Legende:
   Min
   Max


Maximal/Minimal-Werte vom 23.02.2021 - 23.02.2021

Sensor Min Max Avg
Temp
(Aussen-T/F)
6.1 °C
23-02-2021  06:35:00
20.2 °C
23-02-2021  14:45:00
11.51 °C
Feuchte
(Aussen-T/F)
54 %
23-02-2021  17:00:00
95 %
23-02-2021  07:10:00
82.15 %
Taupunkt
(Aussen-T/F)
5.06 C
23-02-2021  06:35:00
11.68 C
23-02-2021  12:15:00
8.25 C

Die Daten stammen von einer Davis Vantage Pro 2 Wetter-Station und werden unter Linux mit der Software wview2wettercgi und aufbereitet. Alle Angaben erfolgen ohne Gewähr für ihre Vollständigkeit oder Richtigkeit.
Kontakt: Rainer Krienke krienke@uni-koblenz.de . Meine Webseiten an der Uni Koblenz oder privat.
Version: $Revision: 0.78 $